x

Passage Island, Mi (pilm4) Weather Station

10:00am - Wed 18th Jan 2017 All times are CST. -6 hours from GMT.

  • Wind
    33mph, 38mph gusts
  • Air Temp 35°f
  • Sea Pressure 1008.4mb
  • Passage Island, Mi
  • Passage Island, Mi

More Historic Weather Station data

Upgrade to MSW Pro to gain access to the past 30 days of data for over 8000 Wavebouys and Weather Stations around the globe.

Join Pro

Comparision Forecast

View Surf forecast
   
Wed 01/18 10:00am 33 38 mph 1008.4mb 35f
9:00am 32 37 mph 1008.2mb 35f
8:00am 26 30 mph 1008.2mb 34f
7:00am 23 25 mph 1007.6mb 34f
6:00am 18 22 mph 1008.5mb 34f
5:00am 20 22 mph 1008.9mb 35f
4:00am 21 23 mph 1008.8mb 35f
3:00am 17 20 mph 1009.8mb 35f
2:00am 14 16 mph 1010.2mb 34f
1:00am 14 17 mph 1010.4mb 33f
12:00am 16 17 mph 1011.5mb 31f
Tue 01/17 11:00pm 18 22 mph 1012.2mb 31f
10:00pm 18 20 mph 1012.4mb 32f
9:00pm 13 14 mph 1012.5mb 33f
8:00pm 11 13 mph 1012.4mb 33f
7:00pm 8 9 mph 1013.3mb 34f
6:00pm 5
mph
1013.8mb 33f
5:00pm  -  1 mph 1014mb 33f
4:00pm 1
mph
1014.1mb 34f
3:00pm  -  1 mph 1014.3mb 35f
2:00pm 3 5 mph 1014.3mb 34f
1:00pm  -  mph 1014.8mb 34f
12:00pm 2 3 mph 1015.3mb 35f
11:00am 5 6 mph 1015.9mb 35f
10:00am 6
mph
1016.5mb 35f
9:00am 8 9 mph 1016.6mb 35f
8:00am 9 10 mph 1016.3mb 35f
7:00am 9 10 mph 1016.6mb 35f
6:00am 13 14 mph 1016.9mb 35f
5:00am 7 8 mph 1017.8mb 35f
4:00am 9
mph
1018.5mb 35f
3:00am 13 14 mph 1018.9mb 35f
2:00am 10 11 mph 1019mb 34f
1:00am 13 14 mph 1019.1mb 34f
12:00am 10 11 mph 1019.2mb 34f
Mon 01/16 11:00pm 11
mph
1019.7mb 34f
10:00pm 7 8 mph 1020mb 33f
9:00pm 3 5 mph 1020.7mb 32f
8:00pm 7 8 mph 1021.6mb 32f
7:00pm 7 9 mph 1021.6mb 33f
6:00pm 7 8 mph 1021.2mb 33f
5:00pm 8
mph
1021.3mb 32f
4:00pm 5
mph
1021.4mb 31f
3:00pm  -  1 mph 1021.2mb 34f
2:00pm 2 3 mph 1020.7mb 32f
1:00pm 8 9 mph 1021.4mb 31f
12:00pm 10 11 mph 1021.5mb 31f
11:00am 14 16 mph 1022.3mb 31f
10:00am 16 18 mph 1022mb 31f
9:00am 16 17 mph 1021.3mb 33f
8:00am 17 18 mph 1020.9mb 33f
7:00am 22 23 mph 1020.3mb 34f
6:00am 22 24 mph 1020mb 34f
5:00am 24 28 mph 1019.5mb 34f
4:00am 30 33 mph 1019.4mb 34f
3:00am 30 33 mph 1018.9mb 33f
2:00am 28 31 mph 1018.6mb 33f
1:00am 26 30 mph 1018.1mb 33f
12:00am 29 34 mph 1017.9mb 34f
Sun 01/15 11:00pm 32 34 mph 1017.3mb 34f
10:00pm 33 37 mph 1017.1mb 35f
9:00pm 36 43 mph 1017.2mb 35f
8:00pm 32 36 mph 1017.6mb 34f
7:00pm 30 34 mph 1017.6mb 33f
6:00pm 29 31 mph 1017.7mb 32f
5:00pm 21 24 mph 1018mb 32f
4:00pm 31 32 mph 1017.8mb 31f
3:00pm 28 33 mph 1019.2mb 31f
2:00pm 23 30 mph 1019.8mb 31f
1:00pm 29 32 mph 1020.6mb 31f
12:00pm 26 28 mph 1021.8mb 30f
11:00am 11 14 mph 1023.3mb 29f
10:00am 23 25 mph 1024.2mb 28f
9:00am 20 21 mph 1024.6mb 28f
8:00am 15 16 mph 1025.3mb 27f
7:00am 18 21 mph 1025.7mb 27f
6:00am 17 20 mph 1026.6mb 26f
5:00am 20 23 mph 1026.9mb 25f
4:00am 13 15 mph 1027.5mb 24f
3:00am 16 17 mph 1028.1mb 24f
2:00am 18 20 mph 1028.7mb 23f
1:00am 16 18 mph 1029.3mb 22f
12:00am 15 16 mph 1029.9mb 22f
Sat 01/14 11:00pm 9 11 mph 1030.4mb 22f
10:00pm 10 13 mph 1030.5mb 21f
9:00pm 16 17 mph 1030.2mb 20f
8:00pm 14 15 mph 1030.1mb 21f
7:00pm 21 23 mph 1029.6mb 22f
6:00pm 21 23 mph 1029.5mb 24f